Euro Snow — VQGH9 — position and weather

sailwx.info

Track history (hours):
 
Tides and Currents Weather Stations Pressure Air Temp Water Temp Dewpoint Dewpoint Depression Visibility Wind Speed Wind Dir Waves Ship Positions

Euro Snow

Last reported at 2014-Dec-19 13:33 UTC. Time now 2014-Dec-19 13:41 UTC.
Position N 51°53' E 004°25'.

Length 133 m; draft 6.4 m.

Type: Cargo ship. MMSI: 235613000.

Date/timePositionNaut miles runAvg speedWind from/ knotsBaromVisibWave heightAir tempDewpointWater temp
2014-Dec-19 13:33N 51°53' E 004°25'0 0.0
2014-Dec-19 12:33N 51°53' E 004°25'0 0.0
2014-Dec-19 11:33N 51°53' E 004°25'0 0.0
2014-Dec-19 10:33N 51°53' E 004°25'0 0.0
2014-Dec-19 09:33N 51°53' E 004°25'0 0.0
2014-Dec-19 08:33N 51°53' E 004°25'0 0.0
2014-Dec-19 07:33N 51°53' E 004°25'0 0.0
2014-Dec-19 06:33N 51°53' E 004°25'0 0.0
2014-Dec-19 05:33N 51°53' E 004°25'0 0.0
2014-Dec-19 04:32N 51°53' E 004°25'0 0.0
2014-Dec-19 03:32N 51°53' E 004°25'0 0.0
2014-Dec-19 02:32N 51°53' E 004°25'0 0.0
2014-Dec-19 01:32N 51°53' E 004°25'0 0.0
2014-Dec-19 00:32N 51°53' E 004°25'0 0.0
2014-Dec-18 23:32N 51°53' E 004°25'0 0.0
2014-Dec-18 22:32N 51°53' E 004°25'0 0.0
2014-Dec-18 21:32N 51°53' E 004°25'0 0.0
2014-Dec-18 20:32N 51°53' E 004°25'0 0.0
2014-Dec-18 19:33N 51°53' E 004°25'2 2.2
2014-Dec-18 18:33N 51°54' E 004°21'7 7.2
2014-Dec-18 17:33N 51°57' E 004°11'5 5.3
2014-Dec-18 16:33N 51°58' E 004°02'0 0.0
2014-Dec-18 15:27N 51°58' E 004°02'0 0.0
2014-Dec-18 14:33N 51°58' E 004°02'0 0.0
2014-Dec-18 13:32N 51°58' E 004°02'0 0.0
2014-Dec-18 12:26N 51°58' E 004°02'0 0.0
2014-Dec-18 11:33N 51°58' E 004°02'0 0.0
2014-Dec-18 10:33N 51°58' E 004°02'2 1.6
2014-Dec-18 09:34N 51°58' E 004°05'1616.0
2014-Dec-18 08:32N 52°04' E 003°40'1616.1
2014-Dec-18 07:33N 52°13' E 003°19'7 6.8
2014-Dec-18 06:33N 52°18' E 003°12'1 1.3
2014-Dec-18 05:33N 52°19' E 003°09'6716.7
2014-Dec-18 01:32N 53°07' E 001°51'1616.3
2014-Dec-18 00:34N 53°16' E 001°31'3815.8
2014-Dec-17 22:10N 53°44' E 000°48'1016.1
2014-Dec-17 21:33N 53°51' E 000°36'1616.3
2014-Dec-17 20:33N 54°02' E 000°16'1616.0
2014-Dec-17 19:33N 54°13' W 000°04'1616.0
2014-Dec-17 18:33N 54°25' W 000°23'1616.1
2014-Dec-17 17:33N 54°34' W 000°46'1414.3
2014-Dec-17 16:33N 54°38' W 001°09'2 1.7
2014-Dec-17 15:33N 54°36' W 001°09'0 0.0
2014-Dec-17 14:33N 54°36' W 001°09'0 0.0
2014-Dec-17 13:33N 54°36' W 001°09'0 0.0
2014-Dec-17 12:17N 54°36' W 001°09'0 0.0
2014-Dec-17 11:32N 54°36' W 001°09'0 0.0
2014-Dec-17 10:28N 54°36' W 001°09'0 0.0
2014-Dec-17 09:26N 54°36' W 001°09'0 0.0
2014-Dec-17 08:25N 54°36' W 001°09'0 0.0
2014-Dec-17 07:22N 54°36' W 001°09'4 5.1
2014-Dec-17 06:32N 54°40' W 001°05'1915.7
2014-Dec-17 05:21N 54°33' W 000°36'1316.4
2014-Dec-17 04:33N 54°24' W 000°19'1716.6
2014-Dec-17 03:33N 54°12' E 000°01'1716.5
2014-Dec-17 02:34N 53°60' E 000°19'1616.1
2014-Dec-17 01:33N 53°48' E 000°38'3515.9
2014-Dec-16 23:19N 53°18' E 001°11'1317.1
2014-Dec-16 22:33N 53°07' E 001°23'1817.9
2014-Dec-16 21:33N 52°53' E 001°40'1716.8
2014-Dec-16 20:33N 52°38' E 001°55'1817.9
2014-Dec-16 19:33N 52°21' E 001°47'1716.9
2014-Dec-16 18:33N 52°05' E 001°40'1514.6
2014-Dec-16 17:34N 51°56' E 001°21'3 2.8
2014-Dec-16 16:32N 51°58' E 001°18'0 0.0
2014-Dec-16 15:34N 51°58' E 001°18'0 0.0
2014-Dec-16 14:31N 51°58' E 001°18'0 0.0
2014-Dec-16 13:33N 51°58' E 001°18'0 0.0
2014-Dec-16 12:31N 51°58' E 001°18'0 0.0
2014-Dec-16 11:31N 51°58' E 001°18'0 0.0
2014-Dec-16 10:32N 51°58' E 001°18'0 0.0
2014-Dec-16 09:32N 51°58' E 001°18'0 0.0
2014-Dec-16 08:31N 51°58' E 001°18'3 3.1
2014-Dec-16 07:34N 51°56' E 001°22'6 6.4
2014-Dec-16 06:33N 51°57' E 001°32'0 0.0
2014-Dec-16 05:30N 51°57' E 001°32'0 0.1
2014-Dec-16 04:33N 51°57' E 001°32'0 0.0
2014-Dec-16 03:30N 51°57' E 001°32'0 0.0
2014-Dec-16 02:33N 51°57' E 001°32'0 0.0
2014-Dec-16 01:09N 51°57' E 001°32'0 0.1
2014-Dec-16 00:26N 51°57' E 001°32'0 0.1
2014-Dec-15 23:33N 51°57' E 001°32'0 0.0
2014-Dec-15 22:33N 51°58' E 001°32'0 0.0
2014-Dec-15 21:33N 51°58' E 001°32'0 0.0
2014-Dec-15 20:33N 51°58' E 001°32'0 0.1
2014-Dec-15 19:34N 51°58' E 001°32'10 9.9
2014-Dec-15 18:33N 51°51' E 001°44'1312.8
2014-Dec-15 17:34N 51°39' E 001°49'1413.9
2014-Dec-15 16:33N 51°25' E 001°44'1413.8
2014-Dec-15 15:33N 51°12' E 001°38'1111.0
2014-Dec-15 14:33N 51°01' E 001°32'5312.4
2014-Dec-15 10:18N 50°26' E 000°30'  
2014-Dec-12 06:11N 39°28' W 009°43'1715.5
2014-Dec-12 05:06N 39°11' W 009°42'915.6
2014-Dec-12 04:34N 39°03' W 009°42'1615.7
2014-Dec-12 03:32N 38°47' W 009°42'1212.7
2014-Dec-12 02:33N 38°38' W 009°30'1414.1
2014-Dec-12 01:34N 38°41' W 009°13'5 5.3
2014-Dec-12 00:32N 38°44' W 009°06'0 0.0
2014-Dec-11 23:32N 38°44' W 009°06'0 0.0
2014-Dec-11 22:32N 38°44' W 009°06'0 0.0
2014-Dec-11 21:32N 38°44' W 009°06'0 0.0
2014-Dec-11 20:33N 38°44' W 009°06'0 0.0
2014-Dec-11 19:33N 38°44' W 009°06'0 0.0
2014-Dec-11 18:33N 38°44' W 009°06'0 0.0
2014-Dec-11 17:33N 38°44' W 009°06'0 0.0
2014-Dec-11 16:33N 38°44' W 009°06'0 0.0
2014-Dec-11 15:33N 38°44' W 009°06'0 0.0
2014-Dec-11 14:34N 38°44' W 009°06'0 0.0
2014-Dec-11 13:34N 38°44' W 009°06'7 6.6
2014-Dec-11 12:34N 38°41' W 009°14'1313.1
2014-Dec-11 11:33N 38°38' W 009°30'1312.8
2014-Dec-11 10:33N 38°46' W 009°43'1515.0
2014-Dec-11 09:34N 39°01' W 009°44'  
Track history (hours):
 
Tides and Currents Weather Stations Pressure Air Temp Water Temp Dewpoint Dewpoint Depression Visibility Wind Speed Wind Dir Waves Ship Positions

Euro Snow

Last reported at 2014-Dec-19 13:33 UTC. Time now 2014-Dec-19 13:41 UTC.
Position N 51°53' E 004°25'.

Length 133 m; draft 6.4 m.

Type: Cargo ship. MMSI: 235613000.

Date/timePositionNaut miles runAvg speedWind from/ knotsBaromVisibWave heightAir tempDewpointWater temp
2014-Dec-19 13:33N 51°53' E 004°25'0 0.0
2014-Dec-19 12:33N 51°53' E 004°25'0 0.0
2014-Dec-19 11:33N 51°53' E 004°25'0 0.0
2014-Dec-19 10:33N 51°53' E 004°25'0 0.0
2014-Dec-19 09:33N 51°53' E 004°25'0 0.0
2014-Dec-19 08:33N 51°53' E 004°25'0 0.0
2014-Dec-19 07:33N 51°53' E 004°25'0 0.0
2014-Dec-19 06:33N 51°53' E 004°25'0 0.0
2014-Dec-19 05:33N 51°53' E 004°25'0 0.0
2014-Dec-19 04:32N 51°53' E 004°25'0 0.0
2014-Dec-19 03:32N 51°53' E 004°25'0 0.0
2014-Dec-19 02:32N 51°53' E 004°25'0 0.0
2014-Dec-19 01:32N 51°53' E 004°25'0 0.0
2014-Dec-19 00:32N 51°53' E 004°25'0 0.0
2014-Dec-18 23:32N 51°53' E 004°25'0 0.0
2014-Dec-18 22:32N 51°53' E 004°25'0 0.0
2014-Dec-18 21:32N 51°53' E 004°25'0 0.0
2014-Dec-18 20:32N 51°53' E 004°25'0 0.0
2014-Dec-18 19:33N 51°53' E 004°25'2 2.2
2014-Dec-18 18:33N 51°54' E 004°21'7 7.2
2014-Dec-18 17:33N 51°57' E 004°11'5 5.3
2014-Dec-18 16:33N 51°58' E 004°02'0 0.0
2014-Dec-18 15:27N 51°58' E 004°02'0 0.0
2014-Dec-18 14:33N 51°58' E 004°02'0 0.0
2014-Dec-18 13:32N 51°58' E 004°02'0 0.0
2014-Dec-18 12:26N 51°58' E 004°02'0 0.0
2014-Dec-18 11:33N 51°58' E 004°02'0 0.0
2014-Dec-18 10:33N 51°58' E 004°02'2 1.6
2014-Dec-18 09:34N 51°58' E 004°05'1616.0
2014-Dec-18 08:32N 52°04' E 003°40'1616.1
2014-Dec-18 07:33N 52°13' E 003°19'7 6.8
2014-Dec-18 06:33N 52°18' E 003°12'1 1.3
2014-Dec-18 05:33N 52°19' E 003°09'6716.7
2014-Dec-18 01:32N 53°07' E 001°51'1616.3
2014-Dec-18 00:34N 53°16' E 001°31'3815.8
2014-Dec-17 22:10N 53°44' E 000°48'1016.1
2014-Dec-17 21:33N 53°51' E 000°36'1616.3
2014-Dec-17 20:33N 54°02' E 000°16'1616.0
2014-Dec-17 19:33N 54°13' W 000°04'1616.0
2014-Dec-17 18:33N 54°25' W 000°23'1616.1
2014-Dec-17 17:33N 54°34' W 000°46'1414.3
2014-Dec-17 16:33N 54°38' W 001°09'2 1.7
2014-Dec-17 15:33N 54°36' W 001°09'0 0.0
2014-Dec-17 14:33N 54°36' W 001°09'0 0.0
2014-Dec-17 13:33N 54°36' W 001°09'0 0.0
2014-Dec-17 12:17N 54°36' W 001°09'0 0.0
2014-Dec-17 11:32N 54°36' W 001°09'0 0.0
2014-Dec-17 10:28N 54°36' W 001°09'0 0.0
2014-Dec-17 09:26N 54°36' W 001°09'0 0.0
2014-Dec-17 08:25N 54°36' W 001°09'0 0.0
2014-Dec-17 07:22N 54°36' W 001°09'4 5.1
2014-Dec-17 06:32N 54°40' W 001°05'1915.7
2014-Dec-17 05:21N 54°33' W 000°36'1316.4
2014-Dec-17 04:33N 54°24' W 000°19'1716.6
2014-Dec-17 03:33N 54°12' E 000°01'1716.5
2014-Dec-17 02:34N 53°60' E 000°19'1616.1
2014-Dec-17 01:33N 53°48' E 000°38'3515.9
2014-Dec-16 23:19N 53°18' E 001°11'1317.1
2014-Dec-16 22:33N 53°07' E 001°23'1817.9
2014-Dec-16 21:33N 52°53' E 001°40'1716.8
2014-Dec-16 20:33N 52°38' E 001°55'1817.9
2014-Dec-16 19:33N 52°21' E 001°47'1716.9
2014-Dec-16 18:33N 52°05' E 001°40'1514.6
2014-Dec-16 17:34N 51°56' E 001°21'3 2.8
2014-Dec-16 16:32N 51°58' E 001°18'0 0.0
2014-Dec-16 15:34N 51°58' E 001°18'0 0.0
2014-Dec-16 14:31N 51°58' E 001°18'0 0.0
2014-Dec-16 13:33N 51°58' E 001°18'0 0.0
2014-Dec-16 12:31N 51°58' E 001°18'0 0.0
2014-Dec-16 11:31N 51°58' E 001°18'0 0.0
2014-Dec-16 10:32N 51°58' E 001°18'0 0.0
2014-Dec-16 09:32N 51°58' E 001°18'0 0.0
2014-Dec-16 08:31N 51°58' E 001°18'3 3.1
2014-Dec-16 07:34N 51°56' E 001°22'6 6.4
2014-Dec-16 06:33N 51°57' E 001°32'0 0.0
2014-Dec-16 05:30N 51°57' E 001°32'0 0.1
2014-Dec-16 04:33N 51°57' E 001°32'0 0.0
2014-Dec-16 03:30N 51°57' E 001°32'0 0.0
2014-Dec-16 02:33N 51°57' E 001°32'0 0.0
2014-Dec-16 01:09N 51°57' E 001°32'0 0.1
2014-Dec-16 00:26N 51°57' E 001°32'0 0.1
2014-Dec-15 23:33N 51°57' E 001°32'0 0.0
2014-Dec-15 22:33N 51°58' E 001°32'0 0.0
2014-Dec-15 21:33N 51°58' E 001°32'0 0.0
2014-Dec-15 20:33N 51°58' E 001°32'0 0.1
2014-Dec-15 19:34N 51°58' E 001°32'10 9.9
2014-Dec-15 18:33N 51°51' E 001°44'1312.8
2014-Dec-15 17:34N 51°39' E 001°49'1413.9
2014-Dec-15 16:33N 51°25' E 001°44'1413.8
2014-Dec-15 15:33N 51°12' E 001°38'1111.0
2014-Dec-15 14:33N 51°01' E 001°32'5312.4
2014-Dec-15 10:18N 50°26' E 000°30'  
2014-Dec-12 06:11N 39°28' W 009°43'1715.5
2014-Dec-12 05:06N 39°11' W 009°42'915.6
2014-Dec-12 04:34N 39°03' W 009°42'1615.7
2014-Dec-12 03:32N 38°47' W 009°42'1212.7
2014-Dec-12 02:33N 38°38' W 009°30'1414.1
2014-Dec-12 01:34N 38°41' W 009°13'5 5.3
2014-Dec-12 00:32N 38°44' W 009°06'0 0.0
2014-Dec-11 23:32N 38°44' W 009°06'0 0.0
2014-Dec-11 22:32N 38°44' W 009°06'0 0.0
2014-Dec-11 21:32N 38°44' W 009°06'0 0.0
2014-Dec-11 20:33N 38°44' W 009°06'0 0.0
2014-Dec-11 19:33N 38°44' W 009°06'0 0.0
2014-Dec-11 18:33N 38°44' W 009°06'0 0.0
2014-Dec-11 17:33N 38°44' W 009°06'0 0.0
2014-Dec-11 16:33N 38°44' W 009°06'0 0.0
2014-Dec-11 15:33N 38°44' W 009°06'0 0.0
2014-Dec-11 14:34N 38°44' W 009°06'0 0.0
2014-Dec-11 13:34N 38°44' W 009°06'7 6.6
2014-Dec-11 12:34N 38°41' W 009°14'1313.1
2014-Dec-11 11:33N 38°38' W 009°30'1312.8
2014-Dec-11 10:33N 38°46' W 009°43'1515.0
2014-Dec-11 09:34N 39°01' W 009°44'  

Dump ship's entire track history